Time;durP1;ratioP1;P1;durP2;ratioP2;P2;SDS_P1;SDS_P2;PMS_P1;PMS_P2;Temp;Humidity;BMP_temperature;BMP_pressure;BME280_temperature;BME280_humidity;BME280_pressure;Samples;Min_cycle;Max_cycle;Signal;HPM_P1;HPM_P2
2022/09/19 00:01:10;;;;;;;2.47;1.43;;;10.70;99.90;;;;;;5016910;28;20751;-44
2022/09/19 00:03:37;;;;;;;2.57;1.73;;;10.70;99.90;;;;;;5016674;28;20452;-44
2022/09/19 00:06:05;;;;;;;3.40;1.70;;;10.70;99.90;;;;;;5016864;28;20942;-47
2022/09/19 00:08:33;;;;;;;3.00;1.57;;;10.70;99.90;;;;;;5017202;28;20472;-48
2022/09/19 00:11:02;;;;;;;1.50;1.33;;;10.70;99.90;;;;;;5018980;28;20480;-45
2022/09/19 00:13:29;;;;;;;5.27;1.70;;;10.60;99.90;;;;;;5020774;28;20447;-43
2022/09/19 00:15:56;;;;;;;5.70;1.67;;;10.70;99.90;;;;;;5020644;28;20461;-42
2022/09/19 00:18:23;;;;;;;7.67;2.10;;;10.70;99.90;;;;;;5020391;28;20455;-47
2022/09/19 00:20:50;;;;;;;1.80;1.43;;;10.70;99.90;;;;;;5020661;28;20808;-48
2022/09/19 00:26:06;;;;;;;2.00;1.40;;;10.70;99.90;;;;;;5020517;28;20754;-41
2022/09/19 00:28:34;;;;;;;1.73;1.60;;;10.70;99.90;;;;;;5019792;28;20481;-45
2022/09/19 00:31:01;;;;;;;1.50;1.37;;;10.70;99.90;;;;;;5019713;28;20452;-45
2022/09/19 00:33:31;;;;;;;2.00;1.80;;;10.70;99.90;;;;;;5020152;28;20483;-44
2022/09/19 00:36:03;;;;;;;3.83;1.60;;;10.80;99.90;;;;;;5019907;28;20457;-50
2022/09/19 00:38:31;;;;;;;4.00;1.47;;;10.70;99.90;;;;;;5019864;28;20511;-46
2022/09/19 00:40:59;;;;;;;2.53;1.67;;;10.70;99.90;;;;;;5020218;28;20524;-47
2022/09/19 00:43:44;;;;;;;3.00;2.00;;;10.60;99.90;;;;;;5020177;28;20495;-44
2022/09/19 00:46:11;;;;;;;4.20;1.80;;;10.60;99.90;;;;;;5019934;28;20429;-43
2022/09/19 00:48:41;;;;;;;4.00;1.60;;;10.60;99.90;;;;;;5019698;28;20453;-44
2022/09/19 00:51:11;;;;;;;2.07;1.50;;;10.60;99.90;;;;;;5019715;28;20944;-45
2022/09/19 00:53:38;;;;;;;5.20;2.30;;;10.60;99.90;;;;;;5020119;28;20449;-45
2022/09/19 00:56:16;;;;;;;4.20;2.63;;;10.60;99.90;;;;;;5019708;28;20842;-43
2022/09/19 00:58:45;;;;;;;5.63;2.63;;;10.60;99.90;;;;;;5020214;28;20495;-44
2022/09/19 01:01:13;;;;;;;6.97;2.53;;;10.50;99.90;;;;;;5019603;28;20457;-45
2022/09/19 01:03:40;;;;;;;3.93;1.87;;;10.50;99.90;;;;;;5018982;28;20532;-47
2022/09/19 01:06:19;;;;;;;4.20;2.67;;;10.60;99.90;;;;;;5019508;28;20465;-42
2022/09/19 01:09:17;;;;;;;8.67;1.90;;;10.50;99.90;;;;;;5019992;28;20552;-49
2022/09/19 01:12:01;;;;;;;2.93;2.13;;;10.50;99.90;;;;;;5013078;28;20475;-43
2022/09/19 01:14:53;;;;;;;3.80;2.17;;;10.50;99.90;;;;;;5019665;28;20897;-44
2022/09/19 01:17:26;;;;;;;2.90;2.13;;;10.50;99.90;;;;;;5019557;28;20480;-41
2022/09/19 01:20:23;;;;;;;3.00;1.70;;;10.40;99.90;;;;;;5019759;28;20518;-44
2022/09/19 01:23:05;;;;;;;3.20;2.00;;;10.50;99.90;;;;;;5019072;28;20581;-44
2022/09/19 01:25:46;;;;;;;3.93;1.60;;;10.40;99.90;;;;;;5019324;28;20524;-42
2022/09/19 01:28:20;;;;;;;3.27;1.90;;;10.50;99.90;;;;;;5019697;28;20755;-45
2022/09/19 01:31:16;;;;;;;4.00;2.47;;;10.50;99.90;;;;;;5018929;28;20794;-51
2022/09/19 01:33:45;;;;;;;3.83;2.43;;;10.40;99.90;;;;;;5017499;28;20449;-52
2022/09/19 01:36:15;;;;;;;6.00;2.40;;;10.50;99.90;;;;;;5021113;28;20472;-46
2022/09/19 01:38:43;;;;;;;4.40;2.90;;;10.50;99.90;;;;;;5017111;28;20799;-42
2022/09/19 01:41:12;;;;;;;2.73;2.50;;;10.40;99.90;;;;;;5017113;28;20908;-50
2022/09/19 01:43:40;;;;;;;3.23;2.50;;;10.40;99.90;;;;;;5017082;28;20488;-48
2022/09/19 01:46:17;;;;;;;3.70;2.70;;;10.50;99.90;;;;;;5017011;28;20555;-48
2022/09/19 01:48:52;;;;;;;2.20;1.90;;;10.50;99.90;;;;;;5016939;28;20802;-47
2022/09/19 01:51:32;;;;;;;4.53;2.10;;;10.50;99.90;;;;;;5016866;28;20801;-46
2022/09/19 01:54:14;;;;;;;2.97;2.27;;;10.50;99.90;;;;;;5017219;28;20432;-48
2022/09/19 01:56:50;;;;;;;3.90;2.90;;;10.50;99.90;;;;;;5017078;28;20469;-54
2022/09/19 01:59:51;;;;;;;3.23;1.90;;;10.50;99.90;;;;;;5018919;28;20434;-47
2022/09/19 02:02:28;;;;;;;3.20;2.67;;;10.50;99.90;;;;;;5017370;28;20520;-48
2022/09/19 02:05:02;;;;;;;3.60;2.63;;;10.50;99.90;;;;;;5017024;28;20441;-50
2022/09/19 02:07:42;;;;;;;5.87;2.47;;;10.40;99.90;;;;;;5016977;28;20479;-49
2022/09/19 02:10:14;;;;;;;3.57;2.10;;;10.40;99.90;;;;;;5016932;28;20790;-50
2022/09/19 02:12:44;;;;;;;2.40;1.93;;;10.40;99.90;;;;;;5016919;28;20448;-48
2022/09/19 02:15:16;;;;;;;3.60;2.50;;;10.40;99.90;;;;;;5017153;28;20433;-47
2022/09/19 02:17:50;;;;;;;5.00;2.03;;;10.30;99.90;;;;;;5016777;28;20536;-44
2022/09/19 02:20:22;;;;;;;2.70;1.93;;;10.30;99.90;;;;;;5017232;28;20436;-49
2022/09/19 02:22:52;;;;;;;3.60;2.43;;;10.30;99.90;;;;;;5018710;28;20507;-56
2022/09/19 02:25:27;;;;;;;4.20;2.47;;;10.30;99.90;;;;;;5016388;28;20459;-51
2022/09/19 02:27:59;;;;;;;2.93;2.50;;;10.30;99.90;;;;;;5016696;28;20927;-49
2022/09/19 02:30:28;;;;;;;3.43;2.50;;;10.30;99.90;;;;;;5016662;28;20473;-49
2022/09/19 02:32:55;;;;;;;4.57;2.60;;;10.30;99.90;;;;;;5015923;28;20441;-45
2022/09/19 02:35:34;;;;;;;3.17;1.80;;;10.30;99.90;;;;;;5016484;28;20496;-49
2022/09/19 02:38:11;;;;;;;2.77;2.33;;;10.20;99.90;;;;;;5016509;28;20444;-48
2022/09/19 02:40:47;;;;;;;3.40;2.27;;;10.30;99.90;;;;;;5016195;28;20478;-46
2022/09/19 02:43:21;;;;;;;3.40;2.10;;;10.30;99.90;;;;;;5016440;28;20487;-47
2022/09/19 02:45:54;;;;;;;3.90;2.00;;;10.30;99.90;;;;;;5017305;28;20527;-52
2022/09/19 02:48:27;;;;;;;4.37;2.30;;;10.30;99.90;;;;;;5016504;28;20461;-52
2022/09/19 02:51:00;;;;;;;3.10;2.27;;;10.30;99.90;;;;;;5016152;28;20453;-46
2022/09/19 02:53:31;;;;;;;4.87;2.83;;;10.30;99.90;;;;;;5016101;28;20469;-52
2022/09/19 02:56:01;;;;;;;3.70;2.90;;;10.30;99.90;;;;;;5016136;28;20437;-52
2022/09/19 02:58:33;;;;;;;3.50;2.63;;;10.30;99.90;;;;;;5015962;28;20473;-45
2022/09/19 03:04:13;;;;;;;2.70;2.40;;;10.40;99.90;;;;;;5016423;28;20799;-55
2022/09/19 03:06:45;;;;;;;2.70;2.30;;;10.30;99.90;;;;;;5019277;28;20438;-45
2022/09/19 03:09:15;;;;;;;6.00;2.80;;;10.40;99.90;;;;;;5015714;28;20485;-45
2022/09/19 03:11:50;;;;;;;7.07;2.83;;;10.40;99.90;;;;;;5016419;28;20859;-46
2022/09/19 03:14:17;;;;;;;5.73;3.10;;;10.30;99.90;;;;;;5015759;28;20480;-47
2022/09/19 03:16:48;;;;;;;4.13;2.90;;;10.30;99.90;;;;;;5015664;28;20909;-41
2022/09/19 03:19:15;;;;;;;5.20;3.90;;;10.40;99.90;;;;;;5015944;28;20516;-53
2022/09/19 03:21:43;;;;;;;4.93;2.80;;;10.40;99.90;;;;;;5017361;28;20452;-49
2022/09/19 03:24:11;;;;;;;5.20;2.90;;;10.40;99.90;;;;;;5015493;28;20508;-47
2022/09/19 03:26:38;;;;;;;6.50;3.13;;;10.40;99.90;;;;;;5015518;28;20939;-47
2022/09/19 03:29:08;;;;;;;5.70;3.60;;;10.40;99.90;;;;;;5015892;28;20453;-47
2022/09/19 03:31:35;;;;;;;6.00;3.50;;;10.40;99.90;;;;;;5019354;28;20477;-47
2022/09/19 03:34:03;;;;;;;7.07;3.73;;;10.40;99.90;;;;;;5015520;28;20464;-44
2022/09/19 03:36:33;;;;;;;4.53;2.90;;;10.40;99.90;;;;;;5015483;28;20563;-49
2022/09/19 03:39:01;;;;;;;6.00;3.17;;;10.40;99.90;;;;;;5015269;28;20510;-48
2022/09/19 03:41:31;;;;;;;5.43;3.20;;;10.50;99.90;;;;;;5015899;28;20543;-49
2022/09/19 03:44:01;;;;;;;3.20;2.47;;;10.50;99.90;;;;;;5019539;28;20484;-51
2022/09/19 03:46:30;;;;;;;6.60;3.63;;;10.50;99.90;;;;;;5021662;28;20491;-50
2022/09/19 03:48:57;;;;;;;8.10;3.70;;;10.50;99.90;;;;;;5021680;28;20479;-46
2022/09/19 03:51:26;;;;;;;5.13;4.03;;;10.40;99.90;;;;;;5022052;28;20449;-45
2022/09/19 03:53:53;;;;;;;4.80;3.20;;;10.50;99.90;;;;;;5022163;28;20552;-45
2022/09/19 03:56:20;;;;;;;4.00;3.00;;;10.50;99.90;;;;;;5022061;28;20768;-47
2022/09/19 03:58:48;;;;;;;6.97;3.60;;;10.50;99.90;;;;;;5022724;28;20559;-49
2022/09/19 04:01:15;;;;;;;3.60;2.93;;;10.60;99.90;;;;;;5022709;28;20748;-46
2022/09/19 04:03:43;;;;;;;6.17;4.20;;;10.50;99.90;;;;;;5022298;28;20494;-46
2022/09/19 04:06:10;;;;;;;5.40;2.90;;;10.60;99.90;;;;;;5024237;28;20956;-45
2022/09/19 04:08:38;;;;;;;4.03;3.63;;;10.60;99.90;;;;;;5023940;28;20453;-49
2022/09/19 04:11:09;;;;;;;7.87;3.47;;;10.60;99.90;;;;;;5021397;28;20501;-46
2022/09/19 04:13:37;;;;;;;6.73;3.97;;;10.60;99.90;;;;;;5021434;28;20445;-46
2022/09/19 04:16:12;;;;;;;9.10;3.60;;;10.70;99.90;;;;;;5021535;28;20477;-50
2022/09/19 04:18:46;;;;;;;4.63;3.63;;;10.70;99.90;;;;;;5021709;28;20755;-51
2022/09/19 04:21:13;;;;;;;5.23;4.00;;;10.70;99.90;;;;;;5021360;28;20539;-51
2022/09/19 04:23:47;;;;;;;5.93;3.83;;;10.80;99.90;;;;;;5021317;28;20472;-45
2022/09/19 04:26:14;;;;;;;7.00;5.27;;;10.70;99.90;;;;;;5021032;28;20444;-49
2022/09/19 04:28:41;;;;;;;4.90;3.83;;;10.70;99.90;;;;;;5021417;28;20543;-46
2022/09/19 04:31:09;;;;;;;4.50;3.70;;;10.70;99.90;;;;;;5021367;28;20444;-50
2022/09/19 04:33:36;;;;;;;7.07;3.43;;;10.70;99.90;;;;;;5021622;28;20484;-53
2022/09/19 04:36:08;;;;;;;5.67;3.83;;;10.70;99.90;;;;;;5024346;28;20444;-44
2022/09/19 04:38:36;;;;;;;7.03;3.53;;;10.80;99.90;;;;;;5021221;28;20473;-50
2022/09/19 04:41:06;;;;;;;10.13;3.93;;;10.80;99.90;;;;;;5021216;28;20917;-51
2022/09/19 04:43:33;;;;;;;4.27;3.43;;;10.80;99.90;;;;;;5020802;28;20484;-50
2022/09/19 04:46:02;;;;;;;3.50;2.93;;;10.80;99.90;;;;;;5020880;28;20496;-49
2022/09/19 04:48:30;;;;;;;3.53;3.20;;;10.90;99.90;;;;;;5020724;28;20457;-45
2022/09/19 04:50:57;;;;;;;5.67;3.60;;;10.80;99.90;;;;;;5020953;28;20882;-48
2022/09/19 04:53:27;;;;;;;4.07;3.23;;;10.80;99.90;;;;;;5020762;28;20510;-45
2022/09/19 04:55:55;;;;;;;4.17;3.07;;;10.90;99.90;;;;;;5019246;28;20448;-48
2022/09/19 04:58:23;;;;;;;5.13;3.10;;;10.90;99.90;;;;;;5017844;28;20441;-46
2022/09/19 05:00:53;;;;;;;4.00;3.10;;;10.90;99.90;;;;;;5021497;28;20476;-49
2022/09/19 05:03:20;;;;;;;8.10;3.43;;;10.90;99.90;;;;;;5017883;28;20480;-49
2022/09/19 05:05:51;;;;;;;4.37;3.37;;;10.90;99.90;;;;;;5017706;28;20825;-47
2022/09/19 05:08:20;;;;;;;7.30;3.60;;;10.90;99.90;;;;;;5018119;28;20432;-48
2022/09/19 05:10:48;;;;;;;3.60;2.53;;;10.90;99.90;;;;;;5017304;28;20629;-50
2022/09/19 05:13:15;;;;;;;4.40;3.50;;;10.90;99.90;;;;;;5017652;28;20909;-45
2022/09/19 05:15:44;;;;;;;5.50;3.60;;;10.90;99.90;;;;;;5017775;28;20449;-46
2022/09/19 05:18:11;;;;;;;5.83;3.10;;;10.90;99.90;;;;;;5017268;28;20469;-51
2022/09/19 05:20:40;;;;;;;4.20;3.10;;;10.90;99.90;;;;;;5018223;28;20460;-48
2022/09/19 05:23:07;;;;;;;5.13;3.87;;;10.90;99.90;;;;;;5018939;28;20481;-46
2022/09/19 05:25:37;;;;;;;6.93;3.03;;;10.90;99.90;;;;;;5017335;28;20468;-51
2022/09/19 05:28:06;;;;;;;3.70;3.27;;;11.00;99.90;;;;;;5018188;28;20488;-47
2022/09/19 05:30:33;;;;;;;3.73;3.17;;;11.00;99.90;;;;;;5019664;28;20441;-52
2022/09/19 05:33:02;;;;;;;4.20;2.90;;;11.00;99.90;;;;;;5017994;28;20486;-48
2022/09/19 05:35:29;;;;;;;4.73;3.00;;;11.00;99.90;;;;;;5017366;28;20544;-47
2022/09/19 05:37:56;;;;;;;5.37;3.63;;;11.10;99.90;;;;;;5022088;28;20448;-47
2022/09/19 05:40:23;;;;;;;3.53;2.87;;;11.10;99.90;;;;;;5040638;28;20452;-47
2022/09/19 05:42:50;;;;;;;4.10;2.70;;;11.10;99.90;;;;;;5036775;28;20459;-49
2022/09/19 05:45:17;;;;;;;6.97;3.07;;;11.10;99.90;;;;;;5036868;28;20468;-57
2022/09/19 05:47:44;;;;;;;5.37;3.27;;;11.10;99.90;;;;;;5036916;28;20467;-58
2022/09/19 05:50:15;;;;;;;3.50;2.70;;;11.20;99.90;;;;;;5037127;28;20484;-59
2022/09/19 05:55:28;;;;;;;10.40;3.17;;;11.30;99.90;;;;;;5038146;28;20415;-56
2022/09/19 05:58:05;;;;;;;3.70;3.03;;;11.60;99.90;;;;;;5038107;28;20439;-61
2022/09/19 06:00:32;;;;;;;4.97;3.10;;;11.70;99.90;;;;;;5037490;28;20432;-55
2022/09/19 06:03:01;;;;;;;5.00;3.57;;;11.60;99.90;;;;;;5036272;28;20471;-58
2022/09/19 06:05:32;;;;;;;2.93;2.73;;;11.60;99.90;;;;;;5036342;28;20506;-60
2022/09/19 06:07:59;;;;;;;4.40;3.20;;;11.60;99.90;;;;;;5035266;28;20936;-58
2022/09/19 06:10:28;;;;;;;4.70;3.20;;;11.50;99.90;;;;;;5036187;28;20472;-57
2022/09/19 06:12:55;;;;;;;3.40;3.10;;;11.50;99.90;;;;;;5036368;28;20482;-60
2022/09/19 06:15:22;;;;;;;4.60;3.20;;;11.50;99.90;;;;;;5035877;28;20929;-58
2022/09/19 06:17:54;;;;;;;4.40;3.07;;;11.50;99.90;;;;;;5034948;28;20941;-58
2022/09/19 06:20:21;;;;;;;3.60;2.60;;;11.60;99.90;;;;;;5035310;28;20429;-58
2022/09/19 06:22:51;;;;;;;3.30;2.73;;;11.70;99.90;;;;;;5034929;28;20456;-57
2022/09/19 06:25:19;;;;;;;3.90;3.37;;;11.70;99.90;;;;;;5034799;28;20472;-56
2022/09/19 06:27:53;;;;;;;4.10;3.20;;;11.80;99.90;;;;;;5035075;28;20468;-58
2022/09/19 06:30:20;;;;;;;3.30;2.63;;;11.80;99.90;;;;;;5034593;28;20931;-58
2022/09/19 06:32:47;;;;;;;3.47;2.70;;;11.80;99.90;;;;;;5035497;28;20460;-58
2022/09/19 06:35:14;;;;;;;4.73;3.10;;;11.80;99.90;;;;;;5038331;28;20518;-63
2022/09/19 06:37:41;;;;;;;3.53;2.90;;;11.80;99.90;;;;;;5036371;28;20440;-54
2022/09/19 06:40:10;;;;;;;6.60;2.53;;;11.80;99.90;;;;;;5035584;28;20459;-57
2022/09/19 06:42:41;;;;;;;7.30;2.63;;;11.70;99.90;;;;;;5035751;28;20905;-59
2022/09/19 06:45:09;;;;;;;2.27;2.00;;;11.80;99.90;;;;;;5035634;28;20465;-57
2022/09/19 06:47:36;;;;;;;7.00;2.50;;;11.70;99.90;;;;;;5035404;28;20926;-58
2022/09/19 06:50:04;;;;;;;2.47;1.77;;;11.80;99.90;;;;;;5035397;28;20559;-58
2022/09/19 06:52:31;;;;;;;1.90;1.67;;;11.90;99.90;;;;;;5035418;28;20504;-58
2022/09/19 06:54:58;;;;;;;3.90;2.17;;;12.00;99.90;;;;;;5035294;28;20515;-58
2022/09/19 06:57:27;;;;;;;5.20;2.47;;;12.00;99.90;;;;;;5035510;28;20464;-58
2022/09/19 06:59:54;;;;;;;5.20;2.53;;;12.00;99.90;;;;;;5036171;28;20476;-65
2022/09/19 07:02:21;;;;;;;5.17;2.30;;;12.10;99.90;;;;;;5038973;28;20444;-55
2022/09/19 07:04:49;;;;;;;2.40;1.97;;;12.10;99.90;;;;;;5035154;28;20472;-56
2022/09/19 07:07:16;;;;;;;5.20;2.07;;;12.10;99.90;;;;;;5035173;28;20464;-58
2022/09/19 07:09:43;;;;;;;3.67;2.70;;;12.10;99.90;;;;;;5035561;28;20953;-58
2022/09/19 07:12:10;;;;;;;3.23;1.87;;;12.20;99.90;;;;;;5035249;28;20448;-58
2022/09/19 07:14:41;;;;;;;2.00;1.80;;;12.20;99.90;;;;;;5035429;28;20510;-58
2022/09/19 07:17:08;;;;;;;2.00;1.70;;;12.20;99.90;;;;;;5035469;28;20466;-58
2022/09/19 07:19:42;;;;;;;2.53;1.90;;;12.30;99.90;;;;;;5034943;28;20780;-59
2022/09/19 07:22:10;;;;;;;1.63;1.40;;;12.40;99.90;;;;;;5035093;28;20510;-59
2022/09/19 07:24:37;;;;;;;1.97;1.80;;;12.40;99.90;;;;;;5034933;28;20520;-58
2022/09/19 07:27:05;;;;;;;2.07;1.83;;;12.40;99.90;;;;;;5038274;28;20437;-67
2022/09/19 07:29:34;;;;;;;2.17;1.90;;;12.50;99.90;;;;;;5037201;28;20459;-61
2022/09/19 07:32:03;;;;;;;3.10;2.40;;;12.50;99.90;;;;;;5038157;28;20452;-60
2022/09/19 07:34:32;;;;;;;3.87;1.67;;;12.60;99.90;;;;;;5034776;28;20464;-60
2022/09/19 07:36:58;;;;;;;2.93;1.60;;;12.60;99.90;;;;;;5034716;28;20530;-60
2022/09/19 07:39:25;;;;;;;2.40;1.90;;;12.70;99.90;;;;;;5036607;28;20444;-61
2022/09/19 07:41:52;;;;;;;5.13;1.70;;;12.80;99.90;;;;;;5034813;28;20476;-60
2022/09/19 07:44:19;;;;;;;1.93;1.73;;;12.80;99.90;;;;;;5034393;28;20579;-62
2022/09/19 07:47:26;;;;;;;1.87;1.53;;;12.80;99.90;;;;;;5034364;28;20448;-55
2022/09/19 07:49:34;;;;;;;4.40;1.90;;;12.90;99.90;;;;;;5034498;28;20924;-58
2022/09/19 07:52:01;;;;;;;1.83;1.60;;;13.00;99.90;;;;;;5034594;28;20547;-59
2022/09/19 07:54:28;;;;;;;3.30;1.50;;;13.00;99.90;;;;;;5035634;28;20444;-58
2022/09/19 07:56:54;;;;;;;1.90;1.60;;;13.10;99.90;;;;;;5036553;28;20531;-57
2022/09/19 07:59:21;;;;;;;2.40;2.17;;;13.10;99.90;;;;;;5034472;28;20452;-59
2022/09/19 08:01:48;;;;;;;3.17;1.70;;;13.10;99.90;;;;;;5034314;28;20514;-60
2022/09/19 08:04:15;;;;;;;2.67;1.80;;;13.20;99.90;;;;;;5034371;28;20577;-61
2022/09/19 08:06:43;;;;;;;2.27;1.43;;;13.20;99.90;;;;;;5034965;28;20444;-59
2022/09/19 08:09:11;;;;;;;2.27;1.37;;;13.30;99.90;;;;;;5034367;28;20475;-56
2022/09/19 08:11:38;;;;;;;2.20;1.67;;;13.40;99.90;;;;;;5034726;28;20740;-57
2022/09/19 08:14:05;;;;;;;2.67;1.60;;;13.40;99.90;;;;;;5034509;28;20464;-59
2022/09/19 08:16:31;;;;;;;3.93;1.90;;;13.40;99.90;;;;;;5034465;28;20769;-59
2022/09/19 08:18:59;;;;;;;3.10;1.47;;;13.50;99.90;;;;;;5034810;28;20476;-61
2022/09/19 08:21:26;;;;;;;2.27;1.30;;;13.50;99.90;;;;;;5038717;28;20510;-64
2022/09/19 08:23:54;;;;;;;5.00;1.70;;;13.60;99.90;;;;;;5035657;28;20492;-62
2022/09/19 08:26:21;;;;;;;1.40;1.30;;;13.80;99.90;;;;;;5034781;28;20432;-57
2022/09/19 08:28:50;;;;;;;1.37;1.10;;;14.10;99.90;;;;;;5035888;28;20453;-58
2022/09/19 08:31:17;;;;;;;1.10;1.00;;;14.90;99.90;;;;;;5036954;28;20644;-59
2022/09/19 08:33:44;;;;;;;4.03;1.50;;;15.50;99.90;;;;;;5039651;28;20529;-59
2022/09/19 08:36:12;;;;;;;1.67;1.23;;;15.60;99.90;;;;;;5039676;28;20432;-59
2022/09/19 08:38:39;;;;;;;2.60;1.20;;;15.60;99.90;;;;;;5039381;28;20458;-55
2022/09/19 08:41:24;;;;;;;2.93;1.50;;;15.50;99.90;;;;;;5039915;28;20881;-58
2022/09/19 08:43:58;;;;;;;1.17;0.83;;;15.60;99.90;;;;;;5038976;28;20766;-60
2022/09/19 08:46:33;;;;;;;3.17;1.87;;;15.80;99.90;;;;;;5038725;28;20874;-60
2022/09/19 08:49:04;;;;;;;1.77;1.10;;;15.80;99.90;;;;;;5039567;28;20435;-58
2022/09/19 08:51:38;;;;;;;1.93;1.70;;;15.80;99.90;;;;;;5037808;28;20440;-59
2022/09/19 08:54:12;;;;;;;1.70;1.13;;;15.60;99.90;;;;;;5037715;28;20462;-59
2022/09/19 08:56:40;;;;;;;3.23;1.10;;;15.50;99.90;;;;;;5037500;28;20428;-60
2022/09/19 08:59:12;;;;;;;2.30;1.37;;;15.40;99.90;;;;;;5037278;28;20943;-58
2022/09/19 09:01:40;;;;;;;2.27;1.10;;;15.30;99.90;;;;;;5037610;28;20429;-59
2022/09/19 09:04:26;;;;;;;2.33;2.13;;;15.20;99.90;;;;;;5037417;28;20479;-59
2022/09/19 09:07:05;;;;;;;1.50;1.10;;;15.10;99.90;;;;;;5036919;28;20471;-59
2022/09/19 09:09:45;;;;;;;1.60;1.30;;;15.10;99.90;;;;;;5037485;28;20468;-59
2022/09/19 09:12:22;;;;;;;1.93;1.17;;;15.20;99.90;;;;;;5039331;28;20511;-59
2022/09/19 09:15:01;;;;;;;1.40;1.00;;;15.50;99.90;;;;;;5037356;28;20475;-60
2022/09/19 09:17:37;;;;;;;4.03;1.60;;;16.00;99.90;;;;;;5037406;28;20526;-59
2022/09/19 09:20:16;;;;;;;5.73;1.43;;;16.80;99.90;;;;;;5037017;28;20955;-62
2022/09/19 09:22:46;;;;;;;2.00;1.17;;;17.90;99.90;;;;;;5036980;28;20439;-59
2022/09/19 09:25:17;;;;;;;1.40;1.10;;;18.60;99.90;;;;;;5037006;28;20484;-60
2022/09/19 09:27:55;;;;;;;1.10;0.80;;;18.70;99.90;;;;;;5037076;28;20786;-59
2022/09/19 09:30:22;;;;;;;1.17;1.00;;;18.50;99.90;;;;;;5036804;28;20508;-59
2022/09/19 09:32:54;;;;;;;2.70;1.40;;;18.30;99.90;;;;;;5037241;28;20459;-59
2022/09/19 09:35:31;;;;;;;3.83;1.40;;;18.30;99.90;;;;;;5037719;28;20470;-58
2022/09/19 09:38:04;;;;;;;2.07;1.23;;;18.50;99.90;;;;;;5038504;28;20436;-60
2022/09/19 09:43:45;;;;;;;1.87;1.00;;;18.80;99.90;;;;;;5036748;28;20427;-56
2022/09/19 09:46:18;;;;;;;3.27;1.40;;;18.90;99.90;;;;;;5036934;28;20478;-52
2022/09/19 09:48:45;;;;;;;1.70;1.00;;;19.20;99.90;;;;;;5037181;28;20475;-57
2022/09/19 09:51:29;;;;;;;1.10;1.00;;;20.20;99.90;;;;;;5036844;28;20469;-57
2022/09/19 09:56:14;;;;;;;1.87;1.00;;;21.00;99.90;;;;;;5036996;28;20439;-57
2022/09/19 09:57:07;;;;;;;2.10;1.40;;;20.80;99.90;;;;;;5036408;28;20530;-57
2022/09/19 10:05:33;;;;;;;1.70;1.23;;;20.40;99.90;;;;;;5036460;28;20495;-57
2022/09/19 10:08:11;;;;;;;1.87;1.00;;;19.80;99.90;;;;;;5036528;28;20908;-56
2022/09/19 10:10:39;;;;;;;2.70;1.10;;;19.00;99.90;;;;;;5036486;28;20460;-55
2022/09/19 10:13:15;;;;;;;3.10;1.10;;;18.10;99.90;;;;;;5036608;28;20503;-54
2022/09/19 10:15:44;;;;;;;1.53;1.07;;;17.50;99.90;;;;;;5036557;28;20482;-54
2022/09/19 10:18:15;;;;;;;1.77;1.00;;;16.90;99.90;;;;;;5036504;28;20451;-56
2022/09/19 10:20:49;;;;;;;1.03;0.70;;;16.30;99.90;;;;;;5036525;28;20471;-54
2022/09/19 10:23:23;;;;;;;1.60;0.80;;;15.60;99.90;;;;;;5036444;28;20526;-59
2022/09/19 10:25:50;;;;;;;1.80;1.10;;;15.10;99.90;;;;;;5036980;28;20863;-57
2022/09/19 10:28:24;;;;;;;1.97;0.80;;;14.70;99.90;;;;;;5036695;28;20455;-49
2022/09/19 10:30:59;;;;;;;3.27;0.80;;;14.30;99.90;;;;;;5036297;28;20479;-51
2022/09/19 10:33:28;;;;;;;1.20;0.70;;;13.90;99.90;;;;;;5036820;28;20830;-57
2022/09/19 10:35:58;;;;;;;4.43;1.00;;;13.70;99.90;;;;;;5036964;28;20468;-55
2022/09/19 10:38:26;;;;;;;1.43;1.00;;;13.40;99.90;;;;;;5036882;28;20466;-56
2022/09/19 10:40:57;;;;;;;2.93;0.90;;;13.10;99.90;;;;;;5036878;28;20532;-56
2022/09/19 10:43:30;;;;;;;1.00;0.70;;;12.90;99.90;;;;;;5036560;28;20437;-54
2022/09/19 10:46:06;;;;;;;1.20;0.77;;;12.70;99.90;;;;;;5036666;28;20515;-53
2022/09/19 10:48:34;;;;;;;1.30;1.00;;;12.50;99.90;;;;;;5036408;28;20491;-55
2022/09/19 10:51:08;;;;;;;1.10;0.90;;;12.40;99.90;;;;;;5036598;28;20483;-55
2022/09/19 10:53:38;;;;;;;1.93;1.00;;;12.30;99.90;;;;;;5036019;28;20448;-55
2022/09/19 10:56:08;;;;;;;2.03;1.07;;;12.20;99.90;;;;;;5036646;28;20581;-56
2022/09/19 10:58:42;;;;;;;1.67;1.13;;;12.20;99.90;;;;;;5036426;28;20925;-59
2022/09/19 11:01:21;;;;;;;1.53;0.90;;;12.20;99.90;;;;;;5036522;28;20491;-56
2022/09/19 11:03:59;;;;;;;1.20;0.90;;;12.20;99.90;;;;;;5036797;28;20436;-53
2022/09/19 11:06:26;;;;;;;1.20;0.70;;;12.10;99.90;;;;;;5036621;28;20491;-51
2022/09/19 11:08:55;;;;;;;1.10;0.80;;;12.10;99.90;;;;;;5036558;28;20448;-52
2022/09/19 11:11:36;;;;;;;1.30;0.80;;;12.10;99.90;;;;;;5036679;28;20482;-56
2022/09/19 11:14:19;;;;;;;3.30;0.90;;;12.00;99.90;;;;;;5036412;28;20432;-54
2022/09/19 11:17:13;;;;;;;1.10;0.70;;;12.00;99.90;;;;;;5036896;28;20534;-57
2022/09/19 11:20:14;;;;;;;2.37;0.80;;;12.00;99.90;;;;;;5037443;28;20447;-57
2022/09/19 11:22:54;;;;;;;1.50;1.07;;;12.10;99.90;;;;;;5023396;28;20447;-57
2022/09/19 11:25:27;;;;;;;1.23;0.93;;;12.20;99.90;;;;;;5036553;28;20936;-53
2022/09/19 11:28:12;;;;;;;1.37;0.90;;;12.50;99.90;;;;;;5036386;28;20440;-54
2022/09/19 11:30:48;;;;;;;1.93;1.03;;;12.80;99.90;;;;;;5035959;28;20562;-53
2022/09/19 11:33:38;;;;;;;2.60;1.00;;;13.20;99.90;;;;;;5035775;28;20431;-53
2022/09/19 11:36:10;;;;;;;1.30;0.93;;;13.60;99.90;;;;;;5035432;28;20468;-54
2022/09/19 11:38:48;;;;;;;2.60;0.97;;;13.70;99.90;;;;;;5035505;28;20441;-55
2022/09/19 11:41:29;;;;;;;1.40;1.10;;;13.90;99.90;;;;;;5035704;28;20467;-56
2022/09/19 11:44:14;;;;;;;2.37;1.20;;;14.00;99.90;;;;;;5035741;28;20474;-56
2022/09/19 11:46:49;;;;;;;5.37;1.10;;;14.20;99.90;;;;;;5034751;28;20491;-58
2022/09/19 11:49:41;;;;;;;1.43;1.00;;;14.60;99.90;;;;;;5035290;28;20440;-55
2022/09/19 11:52:17;;;;;;;3.07;1.33;;;14.90;99.90;;;;;;5035247;28;20429;-55
2022/09/19 11:55:01;;;;;;;1.97;1.10;;;15.20;99.90;;;;;;5035693;28;20527;-55
2022/09/19 11:57:39;;;;;;;1.77;1.10;;;15.50;99.90;;;;;;5036057;28;20428;-53
2022/09/19 12:00:18;;;;;;;1.20;1.00;;;15.70;99.90;;;;;;5035671;28;20464;-53
2022/09/19 12:03:18;;;;;;;1.67;1.10;;;16.00;99.90;;;;;;5034985;28;20904;-57
2022/09/19 12:06:01;;;;;;;1.30;1.00;;;16.30;99.90;;;;;;5021882;28;20506;-55
2022/09/19 12:08:39;;;;;;;1.20;0.90;;;16.50;99.90;;;;;;5038826;28;20921;-55
2022/09/19 12:11:09;;;;;;;1.30;0.90;;;16.70;99.90;;;;;;5038734;28;20503;-56
2022/09/19 12:13:46;;;;;;;1.50;1.10;;;16.80;99.90;;;;;;5038822;28;20542;-56
2022/09/19 12:16:20;;;;;;;3.40;1.30;;;16.90;99.90;;;;;;5038597;28;20479;-56
2022/09/19 12:18:55;;;;;;;2.00;1.03;;;17.00;99.90;;;;;;5038814;28;20436;-55
2022/09/19 12:21:32;;;;;;;1.50;0.90;;;17.10;99.90;;;;;;5038431;28;20467;-56
2022/09/19 12:26:54;;;;;;;1.00;0.80;;;16.30;99.90;;;;;;5038670;28;20494;-57
2022/09/19 12:29:27;;;;;;;1.70;1.10;;;15.60;99.90;;;;;;5038718;28;20464;-56
2022/09/19 12:32:02;;;;;;;2.03;1.10;;;14.80;99.90;;;;;;5038680;28;20471;-56
2022/09/19 12:34:35;;;;;;;3.07;0.80;;;14.10;99.90;;;;;;5038948;28;20436;-53
2022/09/19 12:37:12;;;;;;;1.70;1.00;;;13.60;99.90;;;;;;5039183;28;20476;-56
2022/09/19 12:39:45;;;;;;;4.80;1.10;;;13.30;99.90;;;;;;5040529;28;20543;-57
2022/09/19 12:42:18;;;;;;;2.93;1.17;;;13.10;99.90;;;;;;5039942;28;20475;-55
2022/09/19 12:44:56;;;;;;;1.60;0.77;;;12.90;99.90;;;;;;5040142;28;20439;-61
2022/09/19 12:47:42;;;;;;;1.10;0.70;;;12.80;99.90;;;;;;5041065;28;20766;-57
2022/09/19 12:50:20;;;;;;;1.73;1.07;;;12.60;99.90;;;;;;5040195;28;20758;-54
2022/09/19 12:53:13;;;;;;;2.00;1.00;;;12.60;99.90;;;;;;5038712;28;20454;-55
2022/09/19 12:55:46;;;;;;;2.83;1.60;;;12.60;99.90;;;;;;5038670;28;20443;-57
2022/09/19 12:58:20;;;;;;;1.40;1.10;;;12.50;99.90;;;;;;5038570;28;20440;-56
2022/09/19 13:00:49;;;;;;;4.90;0.90;;;12.50;99.90;;;;;;5038726;28;20452;-54
2022/09/19 13:03:22;;;;;;;1.53;1.10;;;12.50;99.90;;;;;;5038162;28;20424;-55
2022/09/19 13:05:55;;;;;;;1.50;1.23;;;12.50;99.90;;;;;;5037998;28;20468;-52
2022/09/19 13:08:27;;;;;;;2.80;1.20;;;12.50;99.90;;;;;;5038263;28;20936;-52
2022/09/19 13:11:04;;;;;;;1.60;1.30;;;12.60;99.90;;;;;;5038155;28;20447;-57
2022/09/19 13:13:36;;;;;;;1.40;1.13;;;12.60;99.90;;;;;;5038202;28;20728;-54
2022/09/19 13:16:08;;;;;;;2.47;1.20;;;12.60;99.90;;;;;;5037817;28;20447;-57
2022/09/19 13:24:21;;;;;;;1.70;0.90;;;12.80;99.90;;;;;;5037623;28;20436;-51
2022/09/19 13:26:54;;;;;;;1.97;1.20;;;12.90;99.90;;;;;;5038326;28;20495;-55
2022/09/19 13:29:46;;;;;;;1.07;0.90;;;12.90;99.90;;;;;;5038841;28;20451;-56
2022/09/19 13:32:34;;;;;;;3.97;1.20;;;12.90;99.90;;;;;;5038441;28;20471;-56
2022/09/19 13:35:14;;;;;;;1.17;1.03;;;13.00;99.90;;;;;;5038277;28;20436;-57
2022/09/19 13:37:57;;;;;;;2.10;1.07;;;13.10;99.90;;;;;;5038298;28;20472;-55
2022/09/19 13:40:45;;;;;;;1.63;1.00;;;13.10;99.90;;;;;;5037596;28;20427;-54